sensor_id;sensor_type;location;lat;lon;timestamp;pressure;altitude;pressure_sealevel;temperature;humidity
57232;BME280;43488;46.934;8.276;2022-09-29T00:01:08;94995.66;;;9.10;100.00
57232;BME280;43488;46.934;8.276;2022-09-29T00:03:36;94999.00;;;9.05;100.00
57232;BME280;43488;46.934;8.276;2022-09-29T00:06:13;94997.97;;;9.06;100.00
57232;BME280;43488;46.934;8.276;2022-09-29T00:08:40;94999.88;;;9.11;100.00
57232;BME280;43488;46.934;8.276;2022-09-29T00:11:16;95002.50;;;9.11;100.00
57232;BME280;43488;46.934;8.276;2022-09-29T00:13:46;95003.22;;;9.06;100.00
57232;BME280;43488;46.934;8.276;2022-09-29T00:16:14;94999.81;;;9.06;100.00
57232;BME280;43488;46.934;8.276;2022-09-29T00:18:41;95003.59;;;8.98;100.00
57232;BME280;43488;46.934;8.276;2022-09-29T00:21:17;95001.50;;;9.00;100.00
57232;BME280;43488;46.934;8.276;2022-09-29T00:23:49;94998.09;;;9.00;100.00
57232;BME280;43488;46.934;8.276;2022-09-29T00:26:21;94997.78;;;8.96;100.00
57232;BME280;43488;46.934;8.276;2022-09-29T00:28:56;94997.31;;;8.99;100.00
57232;BME280;43488;46.934;8.276;2022-09-29T00:31:26;94995.72;;;8.98;100.00
57232;BME280;43488;46.934;8.276;2022-09-29T00:33:54;94992.75;;;8.95;100.00
57232;BME280;43488;46.934;8.276;2022-09-29T00:36:23;94999.94;;;8.99;100.00
57232;BME280;43488;46.934;8.276;2022-09-29T00:38:50;94996.75;;;8.97;100.00
57232;BME280;43488;46.934;8.276;2022-09-29T00:41:29;94992.84;;;9.00;100.00
57232;BME280;43488;46.934;8.276;2022-09-29T00:49:22;94990.53;;;9.03;100.00
57232;BME280;43488;46.934;8.276;2022-09-29T00:54:28;94987.13;;;9.03;100.00
57232;BME280;43488;46.934;8.276;2022-09-29T00:56:59;94986.31;;;9.02;100.00
57232;BME280;43488;46.934;8.276;2022-09-29T00:59:39;94981.63;;;9.04;100.00
57232;BME280;43488;46.934;8.276;2022-09-29T01:02:09;94992.59;;;9.01;100.00
57232;BME280;43488;46.934;8.276;2022-09-29T01:04:36;94976.84;;;9.01;100.00
57232;BME280;43488;46.934;8.276;2022-09-29T01:07:04;94984.97;;;9.00;100.00
57232;BME280;43488;46.934;8.276;2022-09-29T01:09:35;94987.03;;;8.98;100.00
57232;BME280;43488;46.934;8.276;2022-09-29T01:12:05;94975.63;;;8.92;100.00
57232;BME280;43488;46.934;8.276;2022-09-29T01:14:34;94976.34;;;8.88;100.00
57232;BME280;43488;46.934;8.276;2022-09-29T01:17:04;94974.53;;;8.88;100.00
57232;BME280;43488;46.934;8.276;2022-09-29T01:31:57;94973.31;;;9.07;100.00
57232;BME280;43488;46.934;8.276;2022-09-29T01:34:52;94967.03;;;9.08;100.00
57232;BME280;43488;46.934;8.276;2022-09-29T01:37:47;94963.03;;;9.06;100.00
57232;BME280;43488;46.934;8.276;2022-09-29T01:40:42;94967.16;;;9.02;100.00
57232;BME280;43488;46.934;8.276;2022-09-29T01:43:23;94962.16;;;9.00;100.00
57232;BME280;43488;46.934;8.276;2022-09-29T01:46:29;94955.78;;;8.96;100.00
57232;BME280;43488;46.934;8.276;2022-09-29T01:49:00;94958.72;;;9.00;100.00
57232;BME280;43488;46.934;8.276;2022-09-29T01:54:20;94960.31;;;9.01;100.00
57232;BME280;43488;46.934;8.276;2022-09-29T01:57:08;94955.88;;;9.01;100.00
57232;BME280;43488;46.934;8.276;2022-09-29T02:02:38;94951.41;;;9.02;100.00
57232;BME280;43488;46.934;8.276;2022-09-29T02:07:50;94954.13;;;9.07;100.00
57232;BME280;43488;46.934;8.276;2022-09-29T02:10:33;94957.31;;;9.09;100.00
57232;BME280;43488;46.934;8.276;2022-09-29T02:13:06;94955.25;;;9.11;100.00
57232;BME280;43488;46.934;8.276;2022-09-29T02:15:38;94947.94;;;9.13;100.00
57232;BME280;43488;46.934;8.276;2022-09-29T02:18:17;94936.63;;;9.12;100.00
57232;BME280;43488;46.934;8.276;2022-09-29T02:20:48;94943.72;;;9.12;100.00
57232;BME280;43488;46.934;8.276;2022-09-29T02:23:17;94937.66;;;9.11;100.00
57232;BME280;43488;46.934;8.276;2022-09-29T02:25:46;94930.50;;;9.07;100.00
57232;BME280;43488;46.934;8.276;2022-09-29T02:28:14;94937.59;;;9.06;100.00
57232;BME280;43488;46.934;8.276;2022-09-29T02:30:43;94931.19;;;9.02;100.00
57232;BME280;43488;46.934;8.276;2022-09-29T02:33:22;94925.16;;;9.02;100.00
57232;BME280;43488;46.934;8.276;2022-09-29T02:39:03;94933.16;;;8.95;100.00
57232;BME280;43488;46.934;8.276;2022-09-29T02:44:33;94928.50;;;8.97;100.00
57232;BME280;43488;46.934;8.276;2022-09-29T02:50:55;94924.06;;;8.98;100.00
57232;BME280;43488;46.934;8.276;2022-09-29T02:57:01;94921.84;;;9.06;100.00
57232;BME280;43488;46.934;8.276;2022-09-29T03:00:11;94913.16;;;9.06;100.00
57232;BME280;43488;46.934;8.276;2022-09-29T03:02:41;94915.78;;;9.06;100.00
57232;BME280;43488;46.934;8.276;2022-09-29T03:05:18;94900.84;;;9.06;100.00
57232;BME280;43488;46.934;8.276;2022-09-29T03:07:46;94906.41;;;9.10;100.00
57232;BME280;43488;46.934;8.276;2022-09-29T03:10:15;94902.19;;;9.09;100.00
57232;BME280;43488;46.934;8.276;2022-09-29T03:12:44;94905.50;;;9.04;100.00
57232;BME280;43488;46.934;8.276;2022-09-29T03:15:13;94897.31;;;9.01;100.00
57232;BME280;43488;46.934;8.276;2022-09-29T03:17:41;94897.31;;;9.01;100.00
57232;BME280;43488;46.934;8.276;2022-09-29T03:20:09;94893.34;;;8.98;100.00
57232;BME280;43488;46.934;8.276;2022-09-29T03:22:37;94893.66;;;9.02;100.00
57232;BME280;43488;46.934;8.276;2022-09-29T03:25:05;94888.41;;;9.02;100.00
57232;BME280;43488;46.934;8.276;2022-09-29T03:27:32;94885.53;;;9.03;100.00
57232;BME280;43488;46.934;8.276;2022-09-29T03:30:00;94883.25;;;9.07;100.00
57232;BME280;43488;46.934;8.276;2022-09-29T03:32:28;94888.03;;;9.10;100.00
57232;BME280;43488;46.934;8.276;2022-09-29T03:34:56;94884.59;;;9.09;100.00
57232;BME280;43488;46.934;8.276;2022-09-29T03:37:23;94880.41;;;9.08;100.00
57232;BME280;43488;46.934;8.276;2022-09-29T03:39:51;94888.50;;;9.07;100.00
57232;BME280;43488;46.934;8.276;2022-09-29T03:42:18;94887.94;;;9.05;100.00
57232;BME280;43488;46.934;8.276;2022-09-29T03:44:49;94883.25;;;9.07;100.00
57232;BME280;43488;46.934;8.276;2022-09-29T03:47:17;94876.97;;;9.08;100.00
57232;BME280;43488;46.934;8.276;2022-09-29T03:49:44;94890.91;;;9.08;100.00
57232;BME280;43488;46.934;8.276;2022-09-29T03:52:11;94887.22;;;9.09;100.00
57232;BME280;43488;46.934;8.276;2022-09-29T03:54:38;94897.19;;;9.07;100.00
57232;BME280;43488;46.934;8.276;2022-09-29T03:57:06;94895.59;;;9.06;100.00
57232;BME280;43488;46.934;8.276;2022-09-29T03:59:33;94900.50;;;9.03;100.00
57232;BME280;43488;46.934;8.276;2022-09-29T04:02:01;94906.00;;;9.01;100.00
57232;BME280;43488;46.934;8.276;2022-09-29T04:04:28;94900.19;;;8.99;100.00
57232;BME280;43488;46.934;8.276;2022-09-29T04:06:56;94909.66;;;9.00;100.00
57232;BME280;43488;46.934;8.276;2022-09-29T04:09:24;94911.47;;;9.00;100.00
57232;BME280;43488;46.934;8.276;2022-09-29T04:11:52;94922.78;;;9.00;100.00
57232;BME280;43488;46.934;8.276;2022-09-29T04:14:19;94927.53;;;9.03;100.00
57232;BME280;43488;46.934;8.276;2022-09-29T04:16:47;94926.75;;;9.03;100.00
57232;BME280;43488;46.934;8.276;2022-09-29T04:19:15;94925.16;;;9.02;100.00
57232;BME280;43488;46.934;8.276;2022-09-29T04:21:43;94930.41;;;9.02;100.00
57232;BME280;43488;46.934;8.276;2022-09-29T04:24:12;94929.13;;;9.04;100.00
57232;BME280;43488;46.934;8.276;2022-09-29T04:26:39;94927.31;;;9.05;100.00
57232;BME280;43488;46.934;8.276;2022-09-29T04:29:07;94926.28;;;9.06;100.00
57232;BME280;43488;46.934;8.276;2022-09-29T04:31:34;94928.13;;;9.05;100.00
57232;BME280;43488;46.934;8.276;2022-09-29T04:34:01;94926.19;;;9.01;100.00
57232;BME280;43488;46.934;8.276;2022-09-29T04:36:29;94930.09;;;8.98;100.00
57232;BME280;43488;46.934;8.276;2022-09-29T04:38:56;94928.50;;;8.97;100.00
57232;BME280;43488;46.934;8.276;2022-09-29T04:41:23;94925.53;;;8.94;100.00
57232;BME280;43488;46.934;8.276;2022-09-29T04:43:50;94925.28;;;8.95;100.00
57232;BME280;43488;46.934;8.276;2022-09-29T04:46:18;94922.66;;;8.95;100.00
57232;BME280;43488;46.934;8.276;2022-09-29T04:48:46;94928.94;;;8.94;100.00
57232;BME280;43488;46.934;8.276;2022-09-29T04:51:14;94931.56;;;8.94;100.00
57232;BME280;43488;46.934;8.276;2022-09-29T04:53:42;94934.56;;;8.98;100.00
57232;BME280;43488;46.934;8.276;2022-09-29T04:56:10;94931.34;;;8.96;100.00
57232;BME280;43488;46.934;8.276;2022-09-29T04:58:38;94929.63;;;9.01;100.00
57232;BME280;43488;46.934;8.276;2022-09-29T05:01:11;94930.16;;;9.03;100.00
57232;BME280;43488;46.934;8.276;2022-09-29T05:03:41;94936.78;;;9.06;100.00
57232;BME280;43488;46.934;8.276;2022-09-29T05:06:09;94934.72;;;9.08;100.00
57232;BME280;43488;46.934;8.276;2022-09-29T05:08:37;94937.34;;;9.08;100.00
57232;BME280;43488;46.934;8.276;2022-09-29T05:11:06;94939.41;;;9.06;100.00
57232;BME280;43488;46.934;8.276;2022-09-29T05:13:33;94940.66;;;9.03;100.00
57232;BME280;43488;46.934;8.276;2022-09-29T05:16:01;94932.56;;;9.05;100.00
57232;BME280;43488;46.934;8.276;2022-09-29T05:18:30;94933.13;;;9.07;100.00
57232;BME280;43488;46.934;8.276;2022-09-29T05:21:04;94936.31;;;9.09;100.00
57232;BME280;43488;46.934;8.276;2022-09-29T05:23:32;94940.78;;;9.08;100.00
57232;BME280;43488;46.934;8.276;2022-09-29T05:26:05;94943.94;;;9.10;100.00
57232;BME280;43488;46.934;8.276;2022-09-29T05:28:32;94941.56;;;9.09;100.00
57232;BME280;43488;46.934;8.276;2022-09-29T05:31:04;94938.84;;;9.04;100.00
57232;BME280;43488;46.934;8.276;2022-09-29T05:33:33;94947.06;;;9.07;100.00
57232;BME280;43488;46.934;8.276;2022-09-29T05:36:03;94942.66;;;9.13;100.00
57232;BME280;43488;46.934;8.276;2022-09-29T05:38:34;94960.13;;;9.19;100.00
57232;BME280;43488;46.934;8.276;2022-09-29T05:41:19;94961.47;;;9.22;100.00
57232;BME280;43488;46.934;8.276;2022-09-29T05:43:50;94952.47;;;9.18;100.00
57232;BME280;43488;46.934;8.276;2022-09-29T05:46:21;94956.84;;;9.12;100.00
57232;BME280;43488;46.934;8.276;2022-09-29T05:48:49;94949.75;;;9.12;100.00
57232;BME280;43488;46.934;8.276;2022-09-29T05:51:21;94953.91;;;9.08;100.00
57232;BME280;43488;46.934;8.276;2022-09-29T05:53:49;94950.25;;;9.09;100.00
57232;BME280;43488;46.934;8.276;2022-09-29T05:56:24;94944.19;;;9.09;100.00
57232;BME280;43488;46.934;8.276;2022-09-29T05:58:52;94944.44;;;9.07;100.00
57232;BME280;43488;46.934;8.276;2022-09-29T06:01:24;94938.38;;;9.07;100.00
57232;BME280;43488;46.934;8.276;2022-09-29T06:03:55;94944.44;;;9.07;100.00
57232;BME280;43488;46.934;8.276;2022-09-29T06:06:26;94946.50;;;9.05;100.00
57232;BME280;43488;46.934;8.276;2022-09-29T06:08:56;94946.25;;;9.07;100.00
57232;BME280;43488;46.934;8.276;2022-09-29T06:11:26;94946.50;;;9.05;100.00
57232;BME280;43488;46.934;8.276;2022-09-29T06:13:54;94948.88;;;9.07;100.00
57232;BME280;43488;46.934;8.276;2022-09-29T06:16:27;94941.81;;;9.07;100.00
57232;BME280;43488;46.934;8.276;2022-09-29T06:18:55;94941.81;;;9.07;100.00
57232;BME280;43488;46.934;8.276;2022-09-29T06:21:25;94941.56;;;9.09;100.00
57232;BME280;43488;46.934;8.276;2022-09-29T06:23:56;94948.41;;;9.10;100.00
57232;BME280;43488;46.934;8.276;2022-09-29T06:26:25;94953.19;;;9.13;100.00
57232;BME280;43488;46.934;8.276;2022-09-29T06:28:53;94952.13;;;9.14;100.00
57232;BME280;43488;46.934;8.276;2022-09-29T06:31:25;94956.69;;;9.19;100.00
57232;BME280;43488;46.934;8.276;2022-09-29T06:33:56;94961.03;;;9.25;100.00
57232;BME280;43488;46.934;8.276;2022-09-29T06:36:35;94953.34;;;9.23;100.00
57232;BME280;43488;46.934;8.276;2022-09-29T06:39:23;94959.44;;;9.24;100.00
57232;BME280;43488;46.934;8.276;2022-09-29T06:41:50;94960.44;;;9.23;100.00
57232;BME280;43488;46.934;8.276;2022-09-29T06:44:26;94961.03;;;9.25;100.00
57232;BME280;43488;46.934;8.276;2022-09-29T06:46:54;94955.78;;;9.25;100.00
57232;BME280;43488;46.934;8.276;2022-09-29T06:49:22;94958.94;;;9.27;100.00
57232;BME280;43488;46.934;8.276;2022-09-29T06:51:50;94955.28;;;9.28;100.00
57232;BME280;43488;46.934;8.276;2022-09-29T06:54:21;94967.94;;;9.31;100.00
57232;BME280;43488;46.934;8.276;2022-09-29T06:56:51;94958.81;;;9.33;100.00
57232;BME280;43488;46.934;8.276;2022-09-29T06:59:19;94960.72;;;9.38;100.00
57232;BME280;43488;46.934;8.276;2022-09-29T07:01:46;94968.03;;;9.36;100.00
57232;BME280;43488;46.934;8.276;2022-09-29T07:04:16;94956.50;;;9.37;100.00
57232;BME280;43488;46.934;8.276;2022-09-29T07:06:45;94965.47;;;9.41;100.00
57232;BME280;43488;46.934;8.276;2022-09-29T07:09:13;94972.09;;;9.44;100.00
57232;BME280;43488;46.934;8.276;2022-09-29T07:11:47;94965.81;;;9.45;100.00
57232;BME280;43488;46.934;8.276;2022-09-29T07:14:19;94968.91;;;9.41;100.00
57232;BME280;43488;46.934;8.276;2022-09-29T07:16:49;94970.34;;;9.49;100.00
57232;BME280;43488;46.934;8.276;2022-09-29T07:19:18;94971.47;;;9.53;100.00
57232;BME280;43488;46.934;8.276;2022-09-29T07:21:46;94974.66;;;9.55;100.00
57232;BME280;43488;46.934;8.276;2022-09-29T07:24:15;94978.09;;;9.56;100.00
57232;BME280;43488;46.934;8.276;2022-09-29T07:26:43;94978.88;;;9.56;100.00
57232;BME280;43488;46.934;8.276;2022-09-29T07:29:11;94976.00;;;9.58;100.00
57232;BME280;43488;46.934;8.276;2022-09-29T07:31:38;94984.22;;;9.61;100.00
57232;BME280;43488;46.934;8.276;2022-09-29T07:34:06;94985.88;;;9.67;100.00
57232;BME280;43488;46.934;8.276;2022-09-29T07:36:33;94981.66;;;9.66;100.00
57232;BME280;43488;46.934;8.276;2022-09-29T07:39:05;94990.34;;;9.67;100.00
57232;BME280;43488;46.934;8.276;2022-09-29T07:41:32;94991.22;;;9.73;100.00
57232;BME280;43488;46.934;8.276;2022-09-29T07:43:59;94994.97;;;9.77;100.00
57232;BME280;43488;46.934;8.276;2022-09-29T07:46:27;94991.88;;;9.80;100.00
57232;BME280;43488;46.934;8.276;2022-09-29T07:48:54;94996.66;;;9.83;100.00
57232;BME280;43488;46.934;8.276;2022-09-29T07:51:22;95000.88;;;9.84;100.00
57232;BME280;43488;46.934;8.276;2022-09-29T07:53:50;95005.63;;;9.87;100.00
57232;BME280;43488;46.934;8.276;2022-09-29T07:56:20;95001.19;;;9.87;100.00
57232;BME280;43488;46.934;8.276;2022-09-29T07:58:49;95004.63;;;9.88;100.00
57232;BME280;43488;46.934;8.276;2022-09-29T08:01:18;95012.03;;;9.91;100.00
57232;BME280;43488;46.934;8.276;2022-09-29T08:03:54;94998.41;;;9.94;100.00
57232;BME280;43488;46.934;8.276;2022-09-29T08:06:25;95002.84;;;9.93;100.00
57232;BME280;43488;46.934;8.276;2022-09-29T08:08:54;95008.22;;;9.98;100.00
57232;BME280;43488;46.934;8.276;2022-09-29T08:11:22;95005.72;;;9.92;100.00
57232;BME280;43488;46.934;8.276;2022-09-29T08:13:51;95005.72;;;9.92;100.00
57232;BME280;43488;46.934;8.276;2022-09-29T08:16:22;95011.53;;;9.94;100.00
57232;BME280;43488;46.934;8.276;2022-09-29T08:18:50;95015.22;;;9.93;100.00
57232;BME280;43488;46.934;8.276;2022-09-29T08:21:18;95012.19;;;9.84;100.00
57232;BME280;43488;46.934;8.276;2022-09-29T08:23:46;95013.63;;;9.92;100.00
57232;BME280;43488;46.934;8.276;2022-09-29T08:26:18;95017.75;;;10.05;100.00
57232;BME280;43488;46.934;8.276;2022-09-29T08:28:48;95016.50;;;10.07;100.00
57232;BME280;43488;46.934;8.276;2022-09-29T08:31:19;95017.59;;;10.11;100.00
57232;BME280;43488;46.934;8.276;2022-09-29T08:33:49;95025.56;;;10.16;100.00
57232;BME280;43488;46.934;8.276;2022-09-29T08:36:19;95027.63;;;10.14;100.00
57232;BME280;43488;46.934;8.276;2022-09-29T08:38:52;95036.50;;;10.25;100.00
57232;BME280;43488;46.934;8.276;2022-09-29T08:47:24;95043.03;;;10.39;100.00
57232;BME280;43488;46.934;8.276;2022-09-29T08:50:15;95050.06;;;10.34;100.00
57232;BME280;43488;46.934;8.276;2022-09-29T08:52:45;95055.53;;;10.32;100.00
57232;BME280;43488;46.934;8.276;2022-09-29T08:55:56;95044.16;;;10.43;100.00
57232;BME280;43488;46.934;8.276;2022-09-29T08:58:23;95045.19;;;10.42;100.00
57232;BME280;43488;46.934;8.276;2022-09-29T09:04:19;95053.13;;;10.47;100.00
57232;BME280;43488;46.934;8.276;2022-09-29T09:10:02;95057.03;;;10.62;100.00
57232;BME280;43488;46.934;8.276;2022-09-29T09:16:38;95068.97;;;10.69;100.00
57232;BME280;43488;46.934;8.276;2022-09-29T09:24:54;95075.75;;;10.65;98.38
57232;BME280;43488;46.934;8.276;2022-09-29T09:27:32;95070.50;;;10.65;98.19
57232;BME280;43488;46.934;8.276;2022-09-29T09:30:11;95080.38;;;10.58;98.94
57232;BME280;43488;46.934;8.276;2022-09-29T09:32:53;95079.47;;;10.69;99.41
57232;BME280;43488;46.934;8.276;2022-09-29T09:35:46;95079.72;;;10.68;98.81
57232;BME280;43488;46.934;8.276;2022-09-29T09:38:22;95082.84;;;10.65;99.46
57232;BME280;43488;46.934;8.276;2022-09-29T09:40:55;95081.97;;;10.59;99.28
57232;BME280;43488;46.934;8.276;2022-09-29T09:43:32;95072.09;;;10.66;100.00
57232;BME280;43488;46.934;8.276;2022-09-29T09:46:17;95077.59;;;10.65;98.96
57232;BME280;43488;46.934;8.276;2022-09-29T09:49:16;95075.91;;;10.75;99.99
57232;BME280;43488;46.934;8.276;2022-09-29T09:51:49;95070.13;;;10.78;99.55
57232;BME280;43488;46.934;8.276;2022-09-29T09:54:30;95071.94;;;10.95;98.34
57232;BME280;43488;46.934;8.276;2022-09-29T10:02:54;95075.84;;;11.14;98.16
57232;BME280;43488;46.934;8.276;2022-09-29T10:05:35;95078.31;;;11.21;98.16
57232;BME280;43488;46.934;8.276;2022-09-29T10:08:30;95072.78;;;11.44;93.42
57232;BME280;43488;46.934;8.276;2022-09-29T10:11:28;95062.97;;;11.39;93.61
57232;BME280;43488;46.934;8.276;2022-09-29T10:14:12;95073.78;;;11.38;93.80
57232;BME280;43488;46.934;8.276;2022-09-29T10:17:10;95070.28;;;11.32;92.96
57232;BME280;43488;46.934;8.276;2022-09-29T10:20:02;95074.94;;;11.47;92.14
57232;BME280;43488;46.934;8.276;2022-09-29T10:22:32;95068.22;;;11.34;94.18
57232;BME280;43488;46.934;8.276;2022-09-29T10:25:18;95066.41;;;11.40;94.58
57232;BME280;43488;46.934;8.276;2022-09-29T10:27:52;95078.00;;;11.39;91.77
57232;BME280;43488;46.934;8.276;2022-09-29T10:30:33;95084.53;;;11.58;91.33
57232;BME280;43488;46.934;8.276;2022-09-29T10:33:03;95077.47;;;11.64;92.52
57232;BME280;43488;46.934;8.276;2022-09-29T10:35:36;95071.78;;;11.50;92.52
57232;BME280;43488;46.934;8.276;2022-09-29T10:41:06;95075.00;;;11.52;87.53
57232;BME280;43488;46.934;8.276;2022-09-29T10:43:41;95077.91;;;11.56;87.58
57232;BME280;43488;46.934;8.276;2022-09-29T10:46:35;95068.44;;;11.55;85.89
57232;BME280;43488;46.934;8.276;2022-09-29T10:49:13;95074.59;;;11.65;86.63
57232;BME280;43488;46.934;8.276;2022-09-29T10:52:02;95074.81;;;11.37;85.79
57232;BME280;43488;46.934;8.276;2022-09-29T10:54:36;95084.56;;;11.36;84.31
57232;BME280;43488;46.934;8.276;2022-09-29T10:57:14;95086.28;;;11.26;87.10
57232;BME280;43488;46.934;8.276;2022-09-29T10:59:50;95079.97;;;11.27;89.19
57232;BME280;43488;46.934;8.276;2022-09-29T11:02:36;95082.53;;;11.44;84.53
57232;BME280;43488;46.934;8.276;2022-09-29T11:05:23;95082.66;;;11.54;85.96
57232;BME280;43488;46.934;8.276;2022-09-29T11:07:52;95088.28;;;11.40;84.23
57232;BME280;43488;46.934;8.276;2022-09-29T11:10:34;95092.03;;;11.45;86.94
57232;BME280;43488;46.934;8.276;2022-09-29T11:15:50;95097.25;;;11.39;89.00
57232;BME280;43488;46.934;8.276;2022-09-29T11:18:25;95086.44;;;11.63;88.24
57232;BME280;43488;46.934;8.276;2022-09-29T11:27:31;95092.25;;;11.65;87.12
57232;BME280;43488;46.934;8.276;2022-09-29T11:30:19;95101.34;;;11.79;88.30
57232;BME280;43488;46.934;8.276;2022-09-29T12:04:16;95086.47;;;11.90;87.18
57232;BME280;43488;46.934;8.276;2022-09-29T12:13:25;95087.34;;;12.01;84.94
57232;BME280;43488;46.934;8.276;2022-09-29T12:16:07;95084.66;;;11.95;83.19
57232;BME280;43488;46.934;8.276;2022-09-29T12:18:52;95081.63;;;12.09;84.46
57232;BME280;43488;46.934;8.276;2022-09-29T12:21:36;95086.09;;;12.08;84.29
57232;BME280;43488;46.934;8.276;2022-09-29T12:24:25;95089.09;;;12.17;83.19
57232;BME280;43488;46.934;8.276;2022-09-29T12:26:56;95084.81;;;12.11;84.35
57232;BME280;43488;46.934;8.276;2022-09-29T12:29:47;95087.47;;;12.16;82.30
57232;BME280;43488;46.934;8.276;2022-09-29T12:32:53;95078.72;;;12.10;81.67
57232;BME280;43488;46.934;8.276;2022-09-29T12:44:15;95091.81;;;12.27;82.54
57232;BME280;43488;46.934;8.276;2022-09-29T12:46:53;95083.66;;;12.34;81.48
57232;BME280;43488;46.934;8.276;2022-09-29T12:49:57;95086.59;;;12.37;82.04
57232;BME280;43488;46.934;8.276;2022-09-29T12:52:43;95089.13;;;12.22;82.02
57232;BME280;43488;46.934;8.276;2022-09-29T12:55:43;95092.44;;;12.07;83.47
57232;BME280;43488;46.934;8.276;2022-09-29T12:58:31;95096.09;;;12.06;83.95
57232;BME280;43488;46.934;8.276;2022-09-29T13:15:55;95102.22;;;11.85;88.30
57232;BME280;43488;46.934;8.276;2022-09-29T13:27:30;95098.47;;;11.54;90.83
57232;BME280;43488;46.934;8.276;2022-09-29T13:30:15;95104.31;;;11.61;91.96
57232;BME280;43488;46.934;8.276;2022-09-29T13:33:01;95099.00;;;11.56;93.25
57232;BME280;43488;46.934;8.276;2022-09-29T13:35:43;95099.97;;;11.50;92.90
57232;BME280;43488;46.934;8.276;2022-09-29T13:38:25;95107.28;;;11.43;90.79
57232;BME280;43488;46.934;8.276;2022-09-29T13:52:03;95111.97;;;11.35;94.31
57232;BME280;43488;46.934;8.276;2022-09-29T13:54:48;95106.19;;;11.38;93.21
57232;BME280;43488;46.934;8.276;2022-09-29T13:57:20;95106.81;;;11.46;93.90
57232;BME280;43488;46.934;8.276;2022-09-29T14:02:43;95112.00;;;11.40;92.61
57232;BME280;43488;46.934;8.276;2022-09-29T14:10:40;95127.88;;;11.46;92.92
57232;BME280;43488;46.934;8.276;2022-09-29T14:15:46;95123.91;;;11.43;93.10
57232;BME280;43488;46.934;8.276;2022-09-29T14:18:45;95123.94;;;11.48;94.09
57232;BME280;43488;46.934;8.276;2022-09-29T14:21:51;95127.72;;;11.52;93.34
57232;BME280;43488;46.934;8.276;2022-09-29T14:32:56;95137.38;;;11.47;93.03
57232;BME280;43488;46.934;8.276;2022-09-29T14:38:51;95136.09;;;11.49;94.23
57232;BME280;43488;46.934;8.276;2022-09-29T14:41:29;95135.34;;;11.54;95.79
57232;BME280;43488;46.934;8.276;2022-09-29T14:44:23;95134.31;;;11.55;94.94
57232;BME280;43488;46.934;8.276;2022-09-29T14:59:51;95142.28;;;11.38;95.56
57232;BME280;43488;46.934;8.276;2022-09-29T15:02:28;95154.97;;;11.41;96.38
57232;BME280;43488;46.934;8.276;2022-09-29T15:04:58;95154.16;;;11.40;95.73
57232;BME280;43488;46.934;8.276;2022-09-29T15:07:27;95149.09;;;11.34;97.84
57232;BME280;43488;46.934;8.276;2022-09-29T15:09:57;95157.53;;;11.36;99.06
57232;BME280;43488;46.934;8.276;2022-09-29T15:12:29;95153.78;;;11.32;98.08
57232;BME280;43488;46.934;8.276;2022-09-29T15:14:58;95157.72;;;11.29;97.95
57232;BME280;43488;46.934;8.276;2022-09-29T15:17:45;95155.69;;;11.36;99.04
57232;BME280;43488;46.934;8.276;2022-09-29T15:20:45;95155.63;;;11.31;98.96
57232;BME280;43488;46.934;8.276;2022-09-29T15:26:13;95151.34;;;11.25;100.00
57232;BME280;43488;46.934;8.276;2022-09-29T15:28:41;95155.56;;;11.26;100.00
57232;BME280;43488;46.934;8.276;2022-09-29T15:31:16;95161.88;;;11.25;100.00
57232;BME280;43488;46.934;8.276;2022-09-29T15:33:45;95161.63;;;11.27;100.00
57232;BME280;43488;46.934;8.276;2022-09-29T15:36:37;95162.44;;;11.27;100.00
57232;BME280;43488;46.934;8.276;2022-09-29T15:42:02;95162.25;;;11.34;99.32
57232;BME280;43488;46.934;8.276;2022-09-29T15:44:31;95172.84;;;11.39;99.47
57232;BME280;43488;46.934;8.276;2022-09-29T15:47:00;95173.34;;;11.36;98.77
57232;BME280;43488;46.934;8.276;2022-09-29T15:49:29;95181.06;;;11.43;98.69
57232;BME280;43488;46.934;8.276;2022-09-29T15:52:03;95179.66;;;11.35;98.40
57232;BME280;43488;46.934;8.276;2022-09-29T15:54:37;95181.13;;;11.26;98.70
57232;BME280;43488;46.934;8.276;2022-09-29T15:57:43;95193.50;;;11.25;99.95
57232;BME280;43488;46.934;8.276;2022-09-29T16:02:59;95192.63;;;11.20;100.00
57232;BME280;43488;46.934;8.276;2022-09-29T16:05:32;95196.78;;;11.16;99.05
57232;BME280;43488;46.934;8.276;2022-09-29T16:08:17;95197.34;;;11.18;100.00
57232;BME280;43488;46.934;8.276;2022-09-29T16:13:28;95204.44;;;11.17;100.00
57232;BME280;43488;46.934;8.276;2022-09-29T16:16:07;95205.53;;;11.21;100.00
57232;BME280;43488;46.934;8.276;2022-09-29T16:18:49;95206.09;;;11.23;100.00
57232;BME280;43488;46.934;8.276;2022-09-29T16:21:22;95203.47;;;11.23;100.00
57232;BME280;43488;46.934;8.276;2022-09-29T16:24:09;95212.91;;;11.19;100.00
57232;BME280;43488;46.934;8.276;2022-09-29T16:26:46;95218.09;;;11.14;100.00
57232;BME280;43488;46.934;8.276;2022-09-29T16:31:44;95213.81;;;11.08;100.00
57232;BME280;43488;46.934;8.276;2022-09-29T16:34:22;95219.63;;;11.10;100.00
57232;BME280;43488;46.934;8.276;2022-09-29T16:37:02;95222.97;;;11.05;100.00
57232;BME280;43488;46.934;8.276;2022-09-29T16:39:45;95223.69;;;11.01;100.00
57232;BME280;43488;46.934;8.276;2022-09-29T16:42:25;95237.56;;;10.96;100.00
57232;BME280;43488;46.934;8.276;2022-09-29T16:44:54;95240.69;;;10.93;100.00
57232;BME280;43488;46.934;8.276;2022-09-29T16:47:27;95243.56;;;10.92;100.00
57232;BME280;43488;46.934;8.276;2022-09-29T16:50:12;95241.88;;;10.86;100.00
57232;BME280;43488;46.934;8.276;2022-09-29T16:52:47;95240.28;;;10.85;100.00
57232;BME280;43488;46.934;8.276;2022-09-29T17:00:31;95250.56;;;10.86;100.00
57232;BME280;43488;46.934;8.276;2022-09-29T17:02:59;95249.97;;;10.79;100.00
57232;BME280;43488;46.934;8.276;2022-09-29T17:05:40;95247.53;;;10.77;100.00
57232;BME280;43488;46.934;8.276;2022-09-29T17:08:19;95244.84;;;10.72;100.00
57232;BME280;43488;46.934;8.276;2022-09-29T17:10:52;95254.56;;;10.72;100.00
57232;BME280;43488;46.934;8.276;2022-09-29T17:13:20;95250.56;;;10.69;100.00
57232;BME280;43488;46.934;8.276;2022-09-29T17:15:50;95253.59;;;10.61;100.00